sensor_id;sensor_type;location;lat;lon;timestamp;P1;durP1;ratioP1;P2;durP2;ratioP2
49826;SDS011;35715;51.570;6.036;2023-06-22T00:01:09;18.00;;;11.82;;
49826;SDS011;35715;51.570;6.036;2023-06-22T00:03:35;12.45;;;11.15;;
49826;SDS011;35715;51.570;6.036;2023-06-22T00:06:01;15.55;;;12.65;;
49826;SDS011;35715;51.570;6.036;2023-06-22T00:08:26;14.90;;;13.18;;
49826;SDS011;35715;51.570;6.036;2023-06-22T00:10:52;14.40;;;11.98;;
49826;SDS011;35715;51.570;6.036;2023-06-22T00:13:17;20.38;;;11.43;;
49826;SDS011;35715;51.570;6.036;2023-06-22T00:15:56;14.95;;;13.07;;
49826;SDS011;35715;51.570;6.036;2023-06-22T00:18:21;14.70;;;13.20;;
49826;SDS011;35715;51.570;6.036;2023-06-22T00:20:47;14.73;;;12.45;;
49826;SDS011;35715;51.570;6.036;2023-06-22T00:23:12;14.60;;;12.63;;
49826;SDS011;35715;51.570;6.036;2023-06-22T00:25:39;12.98;;;11.73;;
49826;SDS011;35715;51.570;6.036;2023-06-22T00:28:06;13.55;;;12.15;;
49826;SDS011;35715;51.570;6.036;2023-06-22T00:30:32;12.65;;;11.55;;
49826;SDS011;35715;51.570;6.036;2023-06-22T00:32:58;15.38;;;11.80;;
49826;SDS011;35715;51.570;6.036;2023-06-22T00:35:31;14.50;;;13.18;;
49826;SDS011;35715;51.570;6.036;2023-06-22T00:37:59;14.32;;;13.02;;
49826;SDS011;35715;51.570;6.036;2023-06-22T00:40:30;15.65;;;13.65;;
49826;SDS011;35715;51.570;6.036;2023-06-22T00:42:56;16.23;;;12.65;;
49826;SDS011;35715;51.570;6.036;2023-06-22T00:48:30;12.90;;;11.35;;
49826;SDS011;35715;51.570;6.036;2023-06-22T00:50:55;15.48;;;12.52;;
49826;SDS011;35715;51.570;6.036;2023-06-22T00:53:21;15.07;;;13.68;;
49826;SDS011;35715;51.570;6.036;2023-06-22T00:55:48;14.15;;;12.75;;
49826;SDS011;35715;51.570;6.036;2023-06-22T00:58:17;14.75;;;12.95;;
49826;SDS011;35715;51.570;6.036;2023-06-22T01:00:46;14.18;;;12.38;;
49826;SDS011;35715;51.570;6.036;2023-06-22T01:03:12;15.98;;;13.20;;
49826;SDS011;35715;51.570;6.036;2023-06-22T01:10:50;12.90;;;11.73;;
49826;SDS011;35715;51.570;6.036;2023-06-22T01:13:32;13.13;;;11.52;;
49826;SDS011;35715;51.570;6.036;2023-06-22T01:18:57;14.23;;;12.63;;
49826;SDS011;35715;51.570;6.036;2023-06-22T01:21:28;11.97;;;10.87;;
49826;SDS011;35715;51.570;6.036;2023-06-22T01:29:39;14.50;;;11.07;;
49826;SDS011;35715;51.570;6.036;2023-06-22T01:32:05;18.83;;;12.75;;
49826;SDS011;35715;51.570;6.036;2023-06-22T01:34:32;13.23;;;11.95;;
49826;SDS011;35715;51.570;6.036;2023-06-22T01:37:03;14.10;;;12.85;;
49826;SDS011;35715;51.570;6.036;2023-06-22T01:41:55;15.57;;;13.75;;
49826;SDS011;35715;51.570;6.036;2023-06-22T01:44:21;15.50;;;13.88;;
49826;SDS011;35715;51.570;6.036;2023-06-22T01:49:39;16.65;;;14.05;;
49826;SDS011;35715;51.570;6.036;2023-06-22T01:52:06;15.30;;;14.00;;
49826;SDS011;35715;51.570;6.036;2023-06-22T01:54:32;15.35;;;13.48;;
49826;SDS011;35715;51.570;6.036;2023-06-22T01:56:59;15.52;;;13.93;;
49826;SDS011;35715;51.570;6.036;2023-06-22T02:01:58;17.23;;;15.07;;
49826;SDS011;35715;51.570;6.036;2023-06-22T02:04:33;16.33;;;14.07;;
49826;SDS011;35715;51.570;6.036;2023-06-22T02:07:12;20.45;;;16.63;;
49826;SDS011;35715;51.570;6.036;2023-06-22T02:09:42;18.30;;;15.77;;
49826;SDS011;35715;51.570;6.036;2023-06-22T02:12:11;17.73;;;15.73;;
49826;SDS011;35715;51.570;6.036;2023-06-22T02:14:38;18.67;;;17.00;;
49826;SDS011;35715;51.570;6.036;2023-06-22T02:17:08;19.95;;;17.83;;
49826;SDS011;35715;51.570;6.036;2023-06-22T02:19:38;19.98;;;18.02;;
49826;SDS011;35715;51.570;6.036;2023-06-22T02:22:07;20.50;;;17.80;;
49826;SDS011;35715;51.570;6.036;2023-06-22T02:24:32;20.75;;;17.80;;
49826;SDS011;35715;51.570;6.036;2023-06-22T02:27:16;17.23;;;15.30;;
49826;SDS011;35715;51.570;6.036;2023-06-22T02:29:42;17.33;;;15.70;;
49826;SDS011;35715;51.570;6.036;2023-06-22T02:32:07;18.58;;;16.80;;
49826;SDS011;35715;51.570;6.036;2023-06-22T02:34:32;20.00;;;18.15;;
49826;SDS011;35715;51.570;6.036;2023-06-22T02:36:59;18.40;;;16.50;;
49826;SDS011;35715;51.570;6.036;2023-06-22T02:39:26;18.30;;;16.50;;
49826;SDS011;35715;51.570;6.036;2023-06-22T02:41:52;21.67;;;19.45;;
49826;SDS011;35715;51.570;6.036;2023-06-22T02:44:18;21.27;;;19.05;;
49826;SDS011;35715;51.570;6.036;2023-06-22T02:46:44;20.80;;;18.85;;
49826;SDS011;35715;51.570;6.036;2023-06-22T02:49:10;21.85;;;19.67;;
49826;SDS011;35715;51.570;6.036;2023-06-22T02:51:38;20.08;;;18.00;;
49826;SDS011;35715;51.570;6.036;2023-06-22T02:54:04;20.73;;;18.73;;
49826;SDS011;35715;51.570;6.036;2023-06-22T02:56:31;19.77;;;18.00;;
49826;SDS011;35715;51.570;6.036;2023-06-22T02:58:57;21.02;;;19.05;;
49826;SDS011;35715;51.570;6.036;2023-06-22T03:01:26;21.52;;;19.55;;
49826;SDS011;35715;51.570;6.036;2023-06-22T03:03:52;27.15;;;20.23;;
49826;SDS011;35715;51.570;6.036;2023-06-22T03:06:20;23.52;;;21.05;;
49826;SDS011;35715;51.570;6.036;2023-06-22T03:08:48;22.30;;;20.30;;
49826;SDS011;35715;51.570;6.036;2023-06-22T03:11:15;22.65;;;19.55;;
49826;SDS011;35715;51.570;6.036;2023-06-22T03:13:40;20.25;;;18.15;;
49826;SDS011;35715;51.570;6.036;2023-06-22T03:16:17;19.65;;;17.77;;
49826;SDS011;35715;51.570;6.036;2023-06-22T03:18:43;17.35;;;15.68;;
49826;SDS011;35715;51.570;6.036;2023-06-22T03:21:08;17.35;;;15.63;;
49826;SDS011;35715;51.570;6.036;2023-06-22T03:23:34;19.05;;;17.13;;
49826;SDS011;35715;51.570;6.036;2023-06-22T03:26:09;21.67;;;17.90;;
49826;SDS011;35715;51.570;6.036;2023-06-22T03:28:35;19.20;;;17.33;;
49826;SDS011;35715;51.570;6.036;2023-06-22T03:31:01;18.20;;;15.75;;
49826;SDS011;35715;51.570;6.036;2023-06-22T03:33:28;16.23;;;14.82;;
49826;SDS011;35715;51.570;6.036;2023-06-22T03:35:53;18.98;;;15.98;;
49826;SDS011;35715;51.570;6.036;2023-06-22T03:38:19;17.40;;;15.70;;
49826;SDS011;35715;51.570;6.036;2023-06-22T03:40:44;18.50;;;16.80;;
49826;SDS011;35715;51.570;6.036;2023-06-22T03:43:10;22.23;;;20.02;;
49826;SDS011;35715;51.570;6.036;2023-06-22T03:48:12;17.33;;;15.68;;
49826;SDS011;35715;51.570;6.036;2023-06-22T03:50:38;18.77;;;16.33;;
49826;SDS011;35715;51.570;6.036;2023-06-22T03:53:03;17.90;;;16.17;;
49826;SDS011;35715;51.570;6.036;2023-06-22T03:55:29;18.88;;;17.00;;
49826;SDS011;35715;51.570;6.036;2023-06-22T03:57:55;17.02;;;15.55;;
49826;SDS011;35715;51.570;6.036;2023-06-22T04:00:25;18.27;;;16.55;;
49826;SDS011;35715;51.570;6.036;2023-06-22T04:02:50;18.50;;;16.77;;
49826;SDS011;35715;51.570;6.036;2023-06-22T04:11:08;18.77;;;16.90;;
49826;SDS011;35715;51.570;6.036;2023-06-22T04:13:33;20.33;;;18.50;;
49826;SDS011;35715;51.570;6.036;2023-06-22T04:18:27;24.80;;;21.88;;
49826;SDS011;35715;51.570;6.036;2023-06-22T04:20:52;22.08;;;20.00;;
49826;SDS011;35715;51.570;6.036;2023-06-22T04:23:17;23.27;;;21.05;;
49826;SDS011;35715;51.570;6.036;2023-06-22T04:25:59;22.98;;;20.60;;
49826;SDS011;35715;51.570;6.036;2023-06-22T04:28:24;28.17;;;21.90;;
49826;SDS011;35715;51.570;6.036;2023-06-22T04:30:50;25.95;;;22.60;;
49826;SDS011;35715;51.570;6.036;2023-06-22T04:33:16;20.55;;;18.45;;
49826;SDS011;35715;51.570;6.036;2023-06-22T04:38:15;21.80;;;19.77;;
49826;SDS011;35715;51.570;6.036;2023-06-22T04:40:41;23.13;;;20.75;;
49826;SDS011;35715;51.570;6.036;2023-06-22T04:43:07;22.85;;;20.42;;
49826;SDS011;35715;51.570;6.036;2023-06-22T04:45:35;21.40;;;19.20;;
49826;SDS011;35715;51.570;6.036;2023-06-22T04:48:03;23.05;;;20.95;;
49826;SDS011;35715;51.570;6.036;2023-06-22T04:50:29;23.00;;;19.98;;
49826;SDS011;35715;51.570;6.036;2023-06-22T04:52:54;23.25;;;20.85;;
49826;SDS011;35715;51.570;6.036;2023-06-22T04:55:23;24.60;;;22.10;;
49826;SDS011;35715;51.570;6.036;2023-06-22T04:57:50;23.58;;;21.40;;
49826;SDS011;35715;51.570;6.036;2023-06-22T05:05:13;23.52;;;21.15;;
49826;SDS011;35715;51.570;6.036;2023-06-22T05:07:42;23.05;;;20.63;;
49826;SDS011;35715;51.570;6.036;2023-06-22T05:10:10;24.10;;;21.65;;
49826;SDS011;35715;51.570;6.036;2023-06-22T05:12:37;22.98;;;20.88;;
49826;SDS011;35715;51.570;6.036;2023-06-22T05:15:03;24.98;;;22.55;;
49826;SDS011;35715;51.570;6.036;2023-06-22T05:17:29;25.23;;;21.10;;
49826;SDS011;35715;51.570;6.036;2023-06-22T05:19:54;22.90;;;20.25;;
49826;SDS011;35715;51.570;6.036;2023-06-22T05:22:21;21.33;;;19.33;;
49826;SDS011;35715;51.570;6.036;2023-06-22T05:24:46;24.73;;;21.60;;
49826;SDS011;35715;51.570;6.036;2023-06-22T05:27:17;24.27;;;21.98;;
49826;SDS011;35715;51.570;6.036;2023-06-22T05:29:42;27.42;;;24.58;;
49826;SDS011;35715;51.570;6.036;2023-06-22T05:32:08;32.03;;;28.27;;
49826;SDS011;35715;51.570;6.036;2023-06-22T05:34:33;27.83;;;25.13;;
49826;SDS011;35715;51.570;6.036;2023-06-22T05:37:00;27.75;;;25.05;;
49826;SDS011;35715;51.570;6.036;2023-06-22T05:39:25;29.42;;;26.20;;
49826;SDS011;35715;51.570;6.036;2023-06-22T05:41:51;27.27;;;24.58;;
49826;SDS011;35715;51.570;6.036;2023-06-22T05:44:17;28.23;;;25.60;;
49826;SDS011;35715;51.570;6.036;2023-06-22T05:47:02;27.33;;;24.52;;
49826;SDS011;35715;51.570;6.036;2023-06-22T05:49:27;26.20;;;23.67;;
49826;SDS011;35715;51.570;6.036;2023-06-22T05:51:57;25.73;;;23.25;;
49826;SDS011;35715;51.570;6.036;2023-06-22T05:54:23;28.73;;;26.05;;
49826;SDS011;35715;51.570;6.036;2023-06-22T05:56:49;27.38;;;24.80;;
49826;SDS011;35715;51.570;6.036;2023-06-22T05:59:15;28.40;;;23.52;;
49826;SDS011;35715;51.570;6.036;2023-06-22T06:01:40;27.63;;;24.65;;
49826;SDS011;35715;51.570;6.036;2023-06-22T06:04:05;26.13;;;23.20;;
49826;SDS011;35715;51.570;6.036;2023-06-22T06:06:36;26.20;;;23.67;;
49826;SDS011;35715;51.570;6.036;2023-06-22T06:09:05;25.60;;;23.10;;
49826;SDS011;35715;51.570;6.036;2023-06-22T06:11:32;24.20;;;21.65;;
49826;SDS011;35715;51.570;6.036;2023-06-22T06:13:58;25.20;;;22.85;;
49826;SDS011;35715;51.570;6.036;2023-06-22T06:16:23;24.27;;;21.60;;
49826;SDS011;35715;51.570;6.036;2023-06-22T06:18:49;24.98;;;22.70;;
49826;SDS011;35715;51.570;6.036;2023-06-22T06:21:15;24.88;;;22.40;;
49826;SDS011;35715;51.570;6.036;2023-06-22T06:23:41;27.90;;;24.40;;
49826;SDS011;35715;51.570;6.036;2023-06-22T06:26:07;28.30;;;25.38;;
49826;SDS011;35715;51.570;6.036;2023-06-22T06:28:32;26.27;;;23.88;;
49826;SDS011;35715;51.570;6.036;2023-06-22T06:30:58;29.65;;;26.70;;
49826;SDS011;35715;51.570;6.036;2023-06-22T06:33:25;27.27;;;24.58;;
49826;SDS011;35715;51.570;6.036;2023-06-22T06:35:50;27.70;;;25.00;;
49826;SDS011;35715;51.570;6.036;2023-06-22T06:38:16;27.45;;;24.70;;
49826;SDS011;35715;51.570;6.036;2023-06-22T06:40:41;26.42;;;24.02;;
49826;SDS011;35715;51.570;6.036;2023-06-22T06:43:06;26.90;;;24.40;;
49826;SDS011;35715;51.570;6.036;2023-06-22T06:45:32;28.83;;;25.63;;
49826;SDS011;35715;51.570;6.036;2023-06-22T06:47:59;28.17;;;25.40;;
49826;SDS011;35715;51.570;6.036;2023-06-22T06:50:25;26.45;;;23.88;;
49826;SDS011;35715;51.570;6.036;2023-06-22T06:52:50;27.75;;;24.92;;
49826;SDS011;35715;51.570;6.036;2023-06-22T06:57:45;29.13;;;26.00;;
49826;SDS011;35715;51.570;6.036;2023-06-22T07:00:13;26.08;;;23.48;;
49826;SDS011;35715;51.570;6.036;2023-06-22T07:02:40;26.35;;;23.60;;
49826;SDS011;35715;51.570;6.036;2023-06-22T07:05:14;29.33;;;24.38;;
49826;SDS011;35715;51.570;6.036;2023-06-22T07:07:39;23.27;;;21.17;;
49826;SDS011;35715;51.570;6.036;2023-06-22T07:10:06;22.60;;;20.38;;
49826;SDS011;35715;51.570;6.036;2023-06-22T07:12:32;25.58;;;23.13;;
49826;SDS011;35715;51.570;6.036;2023-06-22T07:17:33;26.42;;;21.58;;
49826;SDS011;35715;51.570;6.036;2023-06-22T07:19:59;24.92;;;22.58;;
49826;SDS011;35715;51.570;6.036;2023-06-22T07:22:25;29.95;;;22.40;;
49826;SDS011;35715;51.570;6.036;2023-06-22T07:24:58;23.40;;;21.05;;
49826;SDS011;35715;51.570;6.036;2023-06-22T07:27:24;22.85;;;20.73;;
49826;SDS011;35715;51.570;6.036;2023-06-22T07:29:49;26.05;;;23.50;;
49826;SDS011;35715;51.570;6.036;2023-06-22T07:32:15;27.33;;;24.73;;
49826;SDS011;35715;51.570;6.036;2023-06-22T07:34:41;24.95;;;22.27;;
49826;SDS011;35715;51.570;6.036;2023-06-22T07:37:08;24.00;;;21.60;;
49826;SDS011;35715;51.570;6.036;2023-06-22T07:39:34;24.40;;;22.00;;
49826;SDS011;35715;51.570;6.036;2023-06-22T07:41:59;23.05;;;20.80;;
49826;SDS011;35715;51.570;6.036;2023-06-22T07:44:25;24.38;;;22.13;;
49826;SDS011;35715;51.570;6.036;2023-06-22T07:46:51;23.77;;;21.52;;
49826;SDS011;35715;51.570;6.036;2023-06-22T07:49:17;23.90;;;21.70;;
49826;SDS011;35715;51.570;6.036;2023-06-22T07:51:42;26.55;;;22.67;;
49826;SDS011;35715;51.570;6.036;2023-06-22T07:54:08;26.50;;;23.92;;
49826;SDS011;35715;51.570;6.036;2023-06-22T07:56:34;24.70;;;22.20;;
49826;SDS011;35715;51.570;6.036;2023-06-22T07:58:59;21.88;;;19.92;;
49826;SDS011;35715;51.570;6.036;2023-06-22T08:01:26;23.75;;;21.33;;
49826;SDS011;35715;51.570;6.036;2023-06-22T08:03:52;24.50;;;22.40;;
49826;SDS011;35715;51.570;6.036;2023-06-22T08:06:18;22.52;;;20.45;;
49826;SDS011;35715;51.570;6.036;2023-06-22T08:08:44;24.27;;;21.70;;
49826;SDS011;35715;51.570;6.036;2023-06-22T08:11:12;23.98;;;21.88;;
49826;SDS011;35715;51.570;6.036;2023-06-22T08:13:38;23.45;;;21.45;;
49826;SDS011;35715;51.570;6.036;2023-06-22T08:16:03;26.05;;;23.55;;
49826;SDS011;35715;51.570;6.036;2023-06-22T08:18:29;23.40;;;21.08;;
49826;SDS011;35715;51.570;6.036;2023-06-22T08:20:55;22.98;;;21.02;;
49826;SDS011;35715;51.570;6.036;2023-06-22T08:23:20;24.70;;;22.30;;
49826;SDS011;35715;51.570;6.036;2023-06-22T08:25:50;22.42;;;20.33;;
49826;SDS011;35715;51.570;6.036;2023-06-22T08:28:15;23.90;;;21.70;;
49826;SDS011;35715;51.570;6.036;2023-06-22T08:30:41;22.98;;;20.90;;
49826;SDS011;35715;51.570;6.036;2023-06-22T08:33:06;23.38;;;20.73;;
49826;SDS011;35715;51.570;6.036;2023-06-22T08:35:31;23.95;;;21.85;;
49826;SDS011;35715;51.570;6.036;2023-06-22T08:37:57;24.85;;;22.63;;
49826;SDS011;35715;51.570;6.036;2023-06-22T08:40:24;22.25;;;20.35;;
49826;SDS011;35715;51.570;6.036;2023-06-22T08:42:49;23.25;;;20.83;;
49826;SDS011;35715;51.570;6.036;2023-06-22T08:45:16;24.05;;;21.83;;
49826;SDS011;35715;51.570;6.036;2023-06-22T08:47:42;25.55;;;23.02;;
49826;SDS011;35715;51.570;6.036;2023-06-22T08:50:08;24.55;;;22.10;;
49826;SDS011;35715;51.570;6.036;2023-06-22T08:52:34;23.73;;;21.52;;
49826;SDS011;35715;51.570;6.036;2023-06-22T08:55:00;22.27;;;20.17;;
49826;SDS011;35715;51.570;6.036;2023-06-22T08:57:29;24.45;;;21.70;;
49826;SDS011;35715;51.570;6.036;2023-06-22T08:59:55;24.10;;;21.35;;
49826;SDS011;35715;51.570;6.036;2023-06-22T09:02:23;24.05;;;21.85;;
49826;SDS011;35715;51.570;6.036;2023-06-22T09:04:49;24.08;;;21.85;;
49826;SDS011;35715;51.570;6.036;2023-06-22T09:07:21;25.77;;;23.45;;
49826;SDS011;35715;51.570;6.036;2023-06-22T09:09:48;24.10;;;21.63;;
49826;SDS011;35715;51.570;6.036;2023-06-22T09:12:13;24.23;;;21.83;;
49826;SDS011;35715;51.570;6.036;2023-06-22T09:14:39;26.65;;;23.63;;
49826;SDS011;35715;51.570;6.036;2023-06-22T09:17:04;23.48;;;21.17;;
49826;SDS011;35715;51.570;6.036;2023-06-22T09:19:33;24.33;;;22.10;;
49826;SDS011;35715;51.570;6.036;2023-06-22T09:21:58;24.85;;;22.15;;
49826;SDS011;35715;51.570;6.036;2023-06-22T09:24:25;23.85;;;21.65;;
49826;SDS011;35715;51.570;6.036;2023-06-22T09:26:50;24.65;;;22.10;;
49826;SDS011;35715;51.570;6.036;2023-06-22T09:29:15;22.70;;;20.63;;
49826;SDS011;35715;51.570;6.036;2023-06-22T09:31:41;22.83;;;20.63;;
49826;SDS011;35715;51.570;6.036;2023-06-22T09:34:06;25.25;;;22.83;;
49826;SDS011;35715;51.570;6.036;2023-06-22T09:36:31;23.27;;;21.17;;
49826;SDS011;35715;51.570;6.036;2023-06-22T09:38:57;22.25;;;20.15;;
49826;SDS011;35715;51.570;6.036;2023-06-22T09:41:23;21.33;;;19.40;;
49826;SDS011;35715;51.570;6.036;2023-06-22T09:43:49;25.17;;;22.55;;
49826;SDS011;35715;51.570;6.036;2023-06-22T09:46:15;23.77;;;21.75;;
49826;SDS011;35715;51.570;6.036;2023-06-22T09:48:41;22.90;;;20.80;;
49826;SDS011;35715;51.570;6.036;2023-06-22T09:51:06;24.17;;;21.98;;
49826;SDS011;35715;51.570;6.036;2023-06-22T09:53:31;23.33;;;20.90;;
49826;SDS011;35715;51.570;6.036;2023-06-22T09:55:59;23.30;;;21.15;;
49826;SDS011;35715;51.570;6.036;2023-06-22T09:58:25;23.95;;;21.48;;
49826;SDS011;35715;51.570;6.036;2023-06-22T10:00:50;25.63;;;23.17;;
49826;SDS011;35715;51.570;6.036;2023-06-22T10:03:16;25.15;;;21.48;;
49826;SDS011;35715;51.570;6.036;2023-06-22T10:05:42;24.73;;;22.15;;
49826;SDS011;35715;51.570;6.036;2023-06-22T10:08:08;24.73;;;21.75;;
49826;SDS011;35715;51.570;6.036;2023-06-22T10:10:34;31.10;;;22.15;;
49826;SDS011;35715;51.570;6.036;2023-06-22T10:13:02;23.63;;;21.27;;
49826;SDS011;35715;51.570;6.036;2023-06-22T10:15:33;24.17;;;21.83;;
49826;SDS011;35715;51.570;6.036;2023-06-22T10:17:58;24.95;;;22.10;;
49826;SDS011;35715;51.570;6.036;2023-06-22T10:20:24;22.65;;;20.45;;
49826;SDS011;35715;51.570;6.036;2023-06-22T10:22:50;23.02;;;20.75;;
49826;SDS011;35715;51.570;6.036;2023-06-22T10:25:17;25.42;;;22.75;;
49826;SDS011;35715;51.570;6.036;2023-06-22T10:27:42;24.58;;;22.27;;
49826;SDS011;35715;51.570;6.036;2023-06-22T10:30:08;26.60;;;23.83;;
49826;SDS011;35715;51.570;6.036;2023-06-22T10:32:35;29.13;;;24.77;;
49826;SDS011;35715;51.570;6.036;2023-06-22T10:35:01;31.45;;;26.45;;
49826;SDS011;35715;51.570;6.036;2023-06-22T10:37:26;29.55;;;26.45;;
49826;SDS011;35715;51.570;6.036;2023-06-22T10:39:52;28.45;;;24.80;;
49826;SDS011;35715;51.570;6.036;2023-06-22T10:42:17;28.00;;;25.20;;
49826;SDS011;35715;51.570;6.036;2023-06-22T10:44:42;30.27;;;27.30;;
49826;SDS011;35715;51.570;6.036;2023-06-22T10:47:11;27.75;;;25.10;;
49826;SDS011;35715;51.570;6.036;2023-06-22T10:49:40;29.98;;;27.02;;
49826;SDS011;35715;51.570;6.036;2023-06-22T10:52:08;31.80;;;26.58;;
49826;SDS011;35715;51.570;6.036;2023-06-22T10:54:34;30.60;;;27.42;;
49826;SDS011;35715;51.570;6.036;2023-06-22T10:57:01;31.35;;;28.15;;
49826;SDS011;35715;51.570;6.036;2023-06-22T10:59:27;30.45;;;27.45;;
49826;SDS011;35715;51.570;6.036;2023-06-22T11:01:53;32.47;;;29.33;;
49826;SDS011;35715;51.570;6.036;2023-06-22T11:04:20;35.35;;;31.80;;
49826;SDS011;35715;51.570;6.036;2023-06-22T11:09:34;31.75;;;28.63;;
49826;SDS011;35715;51.570;6.036;2023-06-22T11:12:00;29.30;;;26.50;;
49826;SDS011;35715;51.570;6.036;2023-06-22T11:14:25;26.92;;;24.25;;
49826;SDS011;35715;51.570;6.036;2023-06-22T11:16:56;29.80;;;26.63;;
49826;SDS011;35715;51.570;6.036;2023-06-22T11:19:21;32.55;;;25.52;;
49826;SDS011;35715;51.570;6.036;2023-06-22T11:21:46;30.73;;;27.77;;
49826;SDS011;35715;51.570;6.036;2023-06-22T11:24:12;29.73;;;26.63;;
49826;SDS011;35715;51.570;6.036;2023-06-22T11:26:38;32.45;;;29.23;;
49826;SDS011;35715;51.570;6.036;2023-06-22T11:29:04;36.20;;;28.73;;
49826;SDS011;35715;51.570;6.036;2023-06-22T11:31:33;30.52;;;27.38;;
49826;SDS011;35715;51.570;6.036;2023-06-22T11:33:59;30.73;;;25.95;;
49826;SDS011;35715;51.570;6.036;2023-06-22T11:36:33;31.27;;;27.08;;
49826;SDS011;35715;51.570;6.036;2023-06-22T11:39:01;27.48;;;24.77;;
49826;SDS011;35715;51.570;6.036;2023-06-22T11:41:27;29.63;;;26.85;;
49826;SDS011;35715;51.570;6.036;2023-06-22T11:43:52;26.55;;;23.75;;
49826;SDS011;35715;51.570;6.036;2023-06-22T11:46:20;28.17;;;25.38;;
49826;SDS011;35715;51.570;6.036;2023-06-22T11:48:45;35.08;;;26.83;;
49826;SDS011;35715;51.570;6.036;2023-06-22T11:51:11;30.85;;;27.83;;
49826;SDS011;35715;51.570;6.036;2023-06-22T11:53:36;31.95;;;28.65;;
49826;SDS011;35715;51.570;6.036;2023-06-22T11:56:06;31.92;;;28.73;;
49826;SDS011;35715;51.570;6.036;2023-06-22T11:58:31;30.58;;;27.27;;
49826;SDS011;35715;51.570;6.036;2023-06-22T12:00:57;28.83;;;25.90;;
49826;SDS011;35715;51.570;6.036;2023-06-22T12:03:22;29.85;;;26.77;;
49826;SDS011;35715;51.570;6.036;2023-06-22T12:05:51;29.58;;;26.05;;
49826;SDS011;35715;51.570;6.036;2023-06-22T12:08:19;28.88;;;25.88;;
49826;SDS011;35715;51.570;6.036;2023-06-22T12:10:54;28.02;;;25.23;;
49826;SDS011;35715;51.570;6.036;2023-06-22T12:13:19;30.20;;;27.33;;
49826;SDS011;35715;51.570;6.036;2023-06-22T12:15:48;29.08;;;26.13;;
49826;SDS011;35715;51.570;6.036;2023-06-22T12:18:13;28.33;;;25.45;;
49826;SDS011;35715;51.570;6.036;2023-06-22T12:20:41;28.80;;;25.40;;
49826;SDS011;35715;51.570;6.036;2023-06-22T12:23:14;27.55;;;24.90;;
49826;SDS011;35715;51.570;6.036;2023-06-22T12:28:15;28.35;;;25.23;;
49826;SDS011;35715;51.570;6.036;2023-06-22T12:30:41;21.02;;;19.02;;
49826;SDS011;35715;51.570;6.036;2023-06-22T12:33:06;25.73;;;22.92;;
49826;SDS011;35715;51.570;6.036;2023-06-22T12:38:10;30.48;;;21.38;;
49826;SDS011;35715;51.570;6.036;2023-06-22T12:40:36;24.48;;;22.10;;
49826;SDS011;35715;51.570;6.036;2023-06-22T12:43:01;26.13;;;23.40;;
49826;SDS011;35715;51.570;6.036;2023-06-22T12:45:35;23.02;;;20.80;;
49826;SDS011;35715;51.570;6.036;2023-06-22T12:48:00;24.83;;;22.40;;
49826;SDS011;35715;51.570;6.036;2023-06-22T12:50:26;24.73;;;22.23;;
49826;SDS011;35715;51.570;6.036;2023-06-22T12:52:51;23.52;;;21.35;;
49826;SDS011;35715;51.570;6.036;2023-06-22T12:55:24;23.35;;;21.13;;
49826;SDS011;35715;51.570;6.036;2023-06-22T12:57:49;25.77;;;23.45;;
49826;SDS011;35715;51.570;6.036;2023-06-22T13:00:15;25.58;;;23.30;;
49826;SDS011;35715;51.570;6.036;2023-06-22T13:02:41;23.15;;;21.10;;
49826;SDS011;35715;51.570;6.036;2023-06-22T13:05:18;23.70;;;21.38;;
49826;SDS011;35715;51.570;6.036;2023-06-22T13:07:43;23.42;;;20.70;;
49826;SDS011;35715;51.570;6.036;2023-06-22T13:10:10;22.90;;;20.67;;
49826;SDS011;35715;51.570;6.036;2023-06-22T13:12:36;24.75;;;22.15;;
49826;SDS011;35715;51.570;6.036;2023-06-22T13:17:30;27.00;;;24.40;;
49826;SDS011;35715;51.570;6.036;2023-06-22T13:19:55;25.80;;;23.42;;
49826;SDS011;35715;51.570;6.036;2023-06-22T13:22:28;24.45;;;22.25;;
49826;SDS011;35715;51.570;6.036;2023-06-22T13:27:25;25.10;;;22.70;;
49826;SDS011;35715;51.570;6.036;2023-06-22T13:29:51;24.42;;;22.23;;
49826;SDS011;35715;51.570;6.036;2023-06-22T13:32:17;24.98;;;22.73;;
49826;SDS011;35715;51.570;6.036;2023-06-22T13:34:43;25.40;;;23.20;;
49826;SDS011;35715;51.570;6.036;2023-06-22T13:37:09;25.02;;;22.70;;
49826;SDS011;35715;51.570;6.036;2023-06-22T13:39:35;27.17;;;24.52;;
49826;SDS011;35715;51.570;6.036;2023-06-22T13:42:00;22.33;;;20.38;;
49826;SDS011;35715;51.570;6.036;2023-06-22T13:44:26;25.02;;;22.60;;
49826;SDS011;35715;51.570;6.036;2023-06-22T13:47:01;23.15;;;21.05;;
49826;SDS011;35715;51.570;6.036;2023-06-22T13:49:27;26.10;;;23.85;;
49826;SDS011;35715;51.570;6.036;2023-06-22T13:51:53;24.83;;;22.45;;
49826;SDS011;35715;51.570;6.036;2023-06-22T13:54:18;26.10;;;23.35;;
49826;SDS011;35715;51.570;6.036;2023-06-22T13:57:00;23.30;;;21.30;;
49826;SDS011;35715;51.570;6.036;2023-06-22T13:59:25;24.58;;;22.10;;
49826;SDS011;35715;51.570;6.036;2023-06-22T14:01:52;24.02;;;21.55;;
49826;SDS011;35715;51.570;6.036;2023-06-22T14:04:18;23.33;;;21.20;;
49826;SDS011;35715;51.570;6.036;2023-06-22T14:06:48;23.10;;;21.08;;
49826;SDS011;35715;51.570;6.036;2023-06-22T14:09:13;25.80;;;23.50;;
49826;SDS011;35715;51.570;6.036;2023-06-22T14:11:39;24.77;;;22.42;;
49826;SDS011;35715;51.570;6.036;2023-06-22T14:14:04;23.52;;;21.52;;
49826;SDS011;35715;51.570;6.036;2023-06-22T14:16:31;22.77;;;20.58;;
49826;SDS011;35715;51.570;6.036;2023-06-22T14:18:57;24.48;;;22.17;;
49826;SDS011;35715;51.570;6.036;2023-06-22T14:21:22;26.83;;;22.77;;
49826;SDS011;35715;51.570;6.036;2023-06-22T14:23:47;24.73;;;22.30;;
49826;SDS011;35715;51.570;6.036;2023-06-22T14:26:15;25.50;;;23.20;;
49826;SDS011;35715;51.570;6.036;2023-06-22T14:28:43;22.90;;;20.77;;
49826;SDS011;35715;51.570;6.036;2023-06-22T14:31:12;24.33;;;22.05;;
49826;SDS011;35715;51.570;6.036;2023-06-22T14:33:39;25.60;;;22.90;;
49826;SDS011;35715;51.570;6.036;2023-06-22T14:36:06;25.27;;;23.08;;
49826;SDS011;35715;51.570;6.036;2023-06-22T14:38:31;25.15;;;22.65;;
49826;SDS011;35715;51.570;6.036;2023-06-22T14:40:56;24.45;;;22.42;;
49826;SDS011;35715;51.570;6.036;2023-06-22T14:43:22;25.15;;;22.77;;
49826;SDS011;35715;51.570;6.036;2023-06-22T14:45:50;24.15;;;22.08;;
49826;SDS011;35715;51.570;6.036;2023-06-22T14:48:15;25.70;;;23.33;;
49826;SDS011;35715;51.570;6.036;2023-06-22T14:50:41;24.15;;;22.05;;
49826;SDS011;35715;51.570;6.036;2023-06-22T14:53:06;24.77;;;22.48;;
49826;SDS011;35715;51.570;6.036;2023-06-22T14:55:33;25.63;;;23.13;;
49826;SDS011;35715;51.570;6.036;2023-06-22T14:57:59;25.40;;;23.10;;
49826;SDS011;35715;51.570;6.036;2023-06-22T15:00:24;28.20;;;25.60;;
49826;SDS011;35715;51.570;6.036;2023-06-22T15:02:49;25.83;;;23.67;;
49826;SDS011;35715;51.570;6.036;2023-06-22T15:05:21;26.30;;;23.80;;
49826;SDS011;35715;51.570;6.036;2023-06-22T15:07:49;25.67;;;23.08;;
49826;SDS011;35715;51.570;6.036;2023-06-22T15:10:14;28.83;;;26.17;;
49826;SDS011;35715;51.570;6.036;2023-06-22T15:12:40;30.98;;;27.75;;
49826;SDS011;35715;51.570;6.036;2023-06-22T15:17:35;29.35;;;26.40;;
49826;SDS011;35715;51.570;6.036;2023-06-22T15:20:01;30.83;;;28.02;;
49826;SDS011;35715;51.570;6.036;2023-06-22T15:22:28;37.33;;;28.38;;